createdAt,value
2023-01-25T00:00:53.662Z,103042.72
2023-01-25T00:03:21.497Z,103038.66
2023-01-25T00:05:49.264Z,103028.98
2023-01-25T00:08:17.929Z,103037.45
2023-01-25T00:10:45.684Z,103035.85
2023-01-25T00:13:13.424Z,103036.21
2023-01-25T00:15:41.107Z,103034.22
2023-01-25T00:18:08.879Z,103020.45
2023-01-25T00:20:36.650Z,103025.69
2023-01-25T00:23:04.351Z,103030.49
2023-01-25T00:25:32.035Z,103018.39
2023-01-25T00:27:59.759Z,103024.84
2023-01-25T00:30:27.506Z,103021.20
2023-01-25T00:33:19.253Z,103020.38
2023-01-25T00:35:47.026Z,103021.95
2023-01-25T00:38:34.935Z,103016.30
2023-01-25T00:41:02.710Z,103020.75
2023-01-25T00:43:30.408Z,103014.73
2023-01-25T00:46:04.427Z,103014.37
2023-01-25T00:48:32.226Z,103007.93
2023-01-25T00:51:03.524Z,102999.06
2023-01-25T00:53:31.351Z,103004.73
2023-01-25T00:55:59.132Z,103006.36
2023-01-25T00:58:27.045Z,103005.51
2023-01-25T01:00:55.980Z,103007.99
2023-01-25T01:03:24.187Z,103002.30
2023-01-25T01:06:09.748Z,103001.12
2023-01-25T01:08:41.312Z,102998.70
2023-01-25T01:11:12.414Z,103002.01
2023-01-25T01:13:41.255Z,103002.01
2023-01-25T01:16:13.109Z,103008.95
2023-01-25T01:18:44.199Z,103000.44
2023-01-25T01:21:13.454Z,103006.91
2023-01-25T01:23:41.932Z,103000.44
2023-01-25T01:26:12.934Z,103008.52
2023-01-25T01:28:41.375Z,103011.72
2023-01-25T01:31:21.295Z,103010.91
2023-01-25T01:33:53.809Z,103000.73
2023-01-25T01:36:24.032Z,102997.86
2023-01-25T01:38:51.936Z,102999.06
2023-01-25T01:41:20.370Z,102997.86
2023-01-25T01:43:48.503Z,102997.43
2023-01-25T01:46:22.466Z,103003.09
2023-01-25T01:48:52.416Z,103000.27
2023-01-25T01:51:35.395Z,103001.06
2023-01-25T01:54:09.726Z,103005.93
2023-01-25T01:56:47.517Z,103007.54
2023-01-25T01:59:15.467Z,103004.30
2023-01-25T02:01:44.747Z,102998.64
2023-01-25T02:04:14.116Z,102995.05
2023-01-25T02:06:54.085Z,103003.94
2023-01-25T02:09:24.725Z,103004.37
2023-01-25T02:11:53.946Z,102997.50
2023-01-25T02:14:22.116Z,102993.45
2023-01-25T02:16:49.929Z,102993.45
2023-01-25T02:19:50.369Z,102997.50
2023-01-25T02:22:24.134Z,102992.69
2023-01-25T02:25:07.966Z,102985.76
2023-01-25T02:27:39.818Z,102989.39
2023-01-25T02:30:08.411Z,102997.86
2023-01-25T02:32:36.390Z,102990.17
2023-01-25T02:35:04.204Z,102991.38
2023-01-25T02:37:32.023Z,102984.48
2023-01-25T02:39:59.715Z,102986.09
2023-01-25T02:42:31.953Z,102982.81
2023-01-25T02:44:59.720Z,102985.20
2023-01-25T02:47:27.501Z,102988.80
2023-01-25T02:49:55.247Z,102983.93
2023-01-25T02:52:22.996Z,102982.65
2023-01-25T02:54:50.825Z,102975.00
2023-01-25T02:57:18.873Z,102985.82
2023-01-25T02:59:46.989Z,102981.80
2023-01-25T03:02:15.390Z,102976.90
2023-01-25T03:04:43.199Z,102982.55
2023-01-25T03:07:10.867Z,102980.91
2023-01-25T03:09:38.786Z,102978.04
2023-01-25T03:12:07.127Z,102967.12
2023-01-25T03:14:34.946Z,102966.70
2023-01-25T03:17:02.599Z,102971.53
2023-01-25T03:19:30.393Z,102958.23
2023-01-25T03:22:00.181Z,102954.56
2023-01-25T03:24:28.095Z,102946.45
2023-01-25T03:27:14.591Z,102936.34
2023-01-25T03:29:42.907Z,102952.57
2023-01-25T03:32:10.695Z,102950.54
2023-01-25T03:34:38.597Z,102943.67
2023-01-25T03:37:06.284Z,102946.52
2023-01-25T03:39:33.915Z,102946.13
2023-01-25T03:42:01.650Z,102944.09
2023-01-25T03:44:29.265Z,102941.74
2023-01-25T03:46:57.087Z,102946.55
2023-01-25T03:49:24.871Z,102941.32
2023-01-25T03:51:52.681Z,102939.72
2023-01-25T03:54:20.358Z,102936.45
2023-01-25T03:56:48.043Z,102929.55
2023-01-25T03:59:15.969Z,102925.91
2023-01-25T04:01:43.774Z,102919.44
2023-01-25T04:04:11.541Z,102927.55
2023-01-25T04:06:39.503Z,102929.12
2023-01-25T04:09:07.897Z,102933.21
2023-01-25T04:11:35.605Z,102930.76
2023-01-25T04:14:03.341Z,102937.59
2023-01-25T04:16:32.569Z,102927.06
2023-01-25T04:19:00.384Z,102928.27
2023-01-25T04:21:28.170Z,102926.66
2023-01-25T04:23:55.852Z,102923.40
2023-01-25T04:26:23.662Z,102926.24
2023-01-25T04:28:51.492Z,102919.38
2023-01-25T04:31:19.387Z,102914.99
2023-01-25T04:33:47.159Z,102917.38
2023-01-25T04:36:14.850Z,102915.35
2023-01-25T04:38:43.437Z,102910.94
2023-01-25T04:41:11.099Z,102909.34
2023-01-25T04:43:38.816Z,102904.50
2023-01-25T04:46:06.738Z,102896.81
2023-01-25T04:48:34.838Z,102904.50
2023-01-25T04:51:02.537Z,102897.59
2023-01-25T04:53:30.295Z,102900.02
2023-01-25T04:55:57.995Z,102910.52
2023-01-25T04:58:25.690Z,102902.41
2023-01-25T05:00:53.501Z,102904.04
2023-01-25T05:03:21.202Z,102903.26
2023-01-25T05:05:49.232Z,102912.51
2023-01-25T05:08:16.996Z,102912.51
2023-01-25T05:10:45.328Z,102899.16
2023-01-25T05:13:13.082Z,102906.85
2023-01-25T05:15:40.835Z,102908.06
2023-01-25T05:18:08.553Z,102913.30
2023-01-25T05:20:36.385Z,102897.53
2023-01-25T05:23:04.095Z,102894.30
2023-01-25T05:25:50.262Z,102903.98
2023-01-25T05:28:17.965Z,102903.19
2023-01-25T05:30:45.799Z,102893.94
2023-01-25T05:33:13.609Z,102889.48
2023-01-25T05:35:41.341Z,102890.24
2023-01-25T05:38:08.998Z,102895.15
2023-01-25T05:40:36.724Z,102891.88
2023-01-25T05:43:04.448Z,102890.30
2023-01-25T05:45:32.356Z,102891.13
2023-01-25T05:48:00.781Z,102887.49
2023-01-25T05:50:28.998Z,102889.88
2023-01-25T05:52:56.744Z,102890.66
2023-01-25T05:55:24.630Z,102893.51
2023-01-25T05:57:52.317Z,102898.38
2023-01-25T06:00:20.507Z,102879.74
2023-01-25T06:02:48.343Z,102884.23
2023-01-25T06:05:16.216Z,102879.74
2023-01-25T06:07:43.847Z,102882.13
2023-01-25T06:10:12.041Z,102883.77
2023-01-25T06:12:40.879Z,102883.30
2023-01-25T06:15:09.485Z,102877.65
2023-01-25T06:17:37.392Z,102873.63
2023-01-25T06:20:05.586Z,102885.76
2023-01-25T06:22:33.313Z,102881.67
2023-01-25T06:25:00.980Z,102873.59
2023-01-25T06:27:29.656Z,102878.04
2023-01-25T06:29:57.346Z,102886.12
2023-01-25T06:32:27.025Z,102884.91
2023-01-25T06:34:54.694Z,102881.73
2023-01-25T06:37:23.914Z,102870.42
2023-01-25T06:39:51.764Z,102878.89
2023-01-25T06:42:19.478Z,102878.11
2023-01-25T06:44:47.182Z,102873.20
2023-01-25T06:47:14.926Z,102877.23
2023-01-25T06:49:42.705Z,102882.88
2023-01-25T06:52:10.341Z,102871.14
2023-01-25T06:54:38.181Z,102875.23
2023-01-25T06:57:06.015Z,102877.26
2023-01-25T06:59:33.769Z,102874.09
2023-01-25T07:02:01.589Z,102873.20
2023-01-25T07:04:29.424Z,102878.83
2023-01-25T07:06:57.259Z,102878.83
2023-01-25T07:09:25.684Z,102876.41
2023-01-25T07:11:53.347Z,102876.12
2023-01-25T07:14:21.036Z,102873.30
2023-01-25T07:16:48.743Z,102868.92
2023-01-25T07:19:16.473Z,102865.32
2023-01-25T07:21:44.394Z,102870.20
2023-01-25T07:24:15.895Z,102862.09
2023-01-25T07:26:44.038Z,102858.91
2023-01-25T07:29:17.043Z,102851.20
2023-01-25T07:31:44.872Z,102856.85
2023-01-25T07:34:14.358Z,102851.62
2023-01-25T07:36:44.771Z,102860.09
2023-01-25T07:39:12.914Z,102844.76
2023-01-25T07:41:41.614Z,102851.72
2023-01-25T07:44:11.069Z,102852.14
2023-01-25T07:46:38.777Z,102848.94
2023-01-25T07:49:06.484Z,102855.91
2023-01-25T07:51:34.229Z,102860.35
2023-01-25T07:54:04.989Z,102854.30
2023-01-25T07:56:33.961Z,102862.80
2023-01-25T07:59:06.053Z,102859.60
2023-01-25T08:01:35.394Z,102853.52
2023-01-25T08:04:05.071Z,102858.36
2023-01-25T08:06:39.928Z,102860.02
2023-01-25T08:09:15.313Z,102857.57
2023-01-25T08:11:43.329Z,102860.77
2023-01-25T08:14:12.373Z,102866.44
2023-01-25T08:16:40.054Z,102855.12
2023-01-25T08:19:08.666Z,102846.62
2023-01-25T08:21:36.567Z,102851.49
2023-01-25T08:24:06.909Z,102847.44
2023-01-25T08:26:36.385Z,102842.99
2023-01-25T08:29:05.142Z,102836.52
2023-01-25T08:31:35.714Z,102833.27
2023-01-25T08:34:04.356Z,102837.30
2023-01-25T08:36:32.099Z,102828.41
2023-01-25T08:39:06.707Z,102832.85
2023-01-25T08:41:35.848Z,102831.22
2023-01-25T08:44:03.811Z,102830.01
2023-01-25T08:46:34.175Z,102825.52
2023-01-25T08:49:03.090Z,102828.34
2023-01-25T08:51:32.697Z,102824.28
2023-01-25T08:54:05.505Z,102820.66
2023-01-25T08:56:33.563Z,102821.02
2023-01-25T08:59:01.332Z,102820.66
2023-01-25T09:01:28.991Z,102817.81
2023-01-25T09:03:56.996Z,102807.25
2023-01-25T09:06:24.851Z,102810.09
2023-01-25T09:08:52.557Z,102800.80
2023-01-25T09:11:22.602Z,102798.81
2023-01-25T09:13:50.366Z,102791.16
2023-01-25T09:16:23.737Z,102788.34
2023-01-25T09:18:51.502Z,102785.50
2023-01-25T09:21:20.194Z,102787.95
2023-01-25T09:24:08.625Z,102777.42
2023-01-25T09:26:43.087Z,102775.07
2023-01-25T09:29:13.759Z,102774.29
2023-01-25T09:31:44.618Z,102783.18
2023-01-25T09:34:16.695Z,102775.95
2023-01-25T09:36:44.434Z,102773.14
2023-01-25T09:39:15.380Z,102782.85
2023-01-25T09:42:06.596Z,102778.87
2023-01-25T09:44:59.056Z,102774.84
2023-01-25T09:47:48.240Z,102780.92
2023-01-25T09:50:34.649Z,102778.47
2023-01-25T09:53:22.551Z,102777.26
2023-01-25T09:56:12.192Z,102775.27
2023-01-25T09:58:44.274Z,102783.73
2023-01-25T10:01:38.682Z,102775.63
2023-01-25T10:04:18.953Z,102773.99
2023-01-25T10:07:00.133Z,102781.67
2023-01-25T10:09:55.423Z,102777.66
2023-01-25T10:12:26.221Z,102772.03
2023-01-25T10:14:54.203Z,102772.03
2023-01-25T10:17:36.249Z,102770.82
2023-01-25T10:20:25.672Z,102761.08
2023-01-25T10:23:24.312Z,102766.34
2023-01-25T10:25:54.570Z,102762.28
2023-01-25T10:28:38.474Z,102766.34
2023-01-25T10:31:21.514Z,102758.27
2023-01-25T10:33:50.478Z,102758.23
2023-01-25T10:36:29.997Z,102768.34
2023-01-25T10:39:02.270Z,102763.88
2023-01-25T10:41:42.714Z,102767.95
2023-01-25T10:44:23.486Z,102755.05
2023-01-25T10:47:21.959Z,102763.13
2023-01-25T10:49:56.048Z,102759.08
2023-01-25T10:52:24.999Z,102760.71
2023-01-25T10:55:17.781Z,102752.18
2023-01-25T10:57:49.051Z,102754.63
2023-01-25T11:00:37.596Z,102752.21
2023-01-25T11:03:05.971Z,102750.16
2023-01-25T11:05:39.000Z,102742.44
2023-01-25T11:08:25.687Z,102744.85
2023-01-25T11:10:54.596Z,102738.38
2023-01-25T11:13:25.383Z,102733.54
2023-01-25T11:15:56.939Z,102729.88
2023-01-25T11:18:26.401Z,102731.48
2023-01-25T11:21:19.499Z,102729.39
2023-01-25T11:24:05.913Z,102720.46
2023-01-25T11:26:35.972Z,102718.43
2023-01-25T11:29:17.515Z,102718.83
2023-01-25T11:31:57.207Z,102704.24
2023-01-25T11:34:30.489Z,102709.93
2023-01-25T11:37:29.791Z,102704.30
2023-01-25T11:40:22.414Z,102711.60
2023-01-25T11:43:03.315Z,102705.16
2023-01-25T11:45:40.175Z,102690.21
2023-01-25T11:48:36.099Z,102693.45
2023-01-25T11:51:09.716Z,102690.24
2023-01-25T11:53:59.052Z,102682.98
2023-01-25T11:56:45.272Z,102678.15
2023-01-25T11:59:37.492Z,102680.17
2023-01-25T12:02:47.961Z,102668.89
2023-01-25T12:05:24.645Z,102670.92
2023-01-25T12:08:37.163Z,102665.66
2023-01-25T12:11:22.634Z,102651.92
2023-01-25T12:14:09.944Z,102651.95
2023-01-25T12:17:16.291Z,102648.29
2023-01-25T12:20:22.907Z,102639.40
2023-01-25T12:23:03.599Z,102629.69
2023-01-25T12:25:44.079Z,102627.30
2023-01-25T12:28:29.969Z,102620.86
2023-01-25T12:31:09.885Z,102613.99
2023-01-25T12:34:04.663Z,102611.96
2023-01-25T12:36:38.702Z,102603.03
2023-01-25T12:39:13.656Z,102602.25
2023-01-25T12:41:41.826Z,102600.19
2023-01-25T12:44:14.250Z,102600.62
2023-01-25T12:46:52.304Z,102595.74
2023-01-25T12:49:43.097Z,102594.14
2023-01-25T12:52:33.107Z,102591.30
2023-01-25T12:55:13.523Z,102591.72
2023-01-25T12:57:59.599Z,102588.05
2023-01-25T13:00:44.773Z,102585.21
2023-01-25T13:03:34.285Z,102577.95
2023-01-25T13:06:11.082Z,102569.09
2023-01-25T13:08:43.475Z,102567.88
2023-01-25T13:11:18.400Z,102570.73
2023-01-25T13:13:46.158Z,102572.33
2023-01-25T13:16:32.138Z,102565.46
2023-01-25T13:19:00.383Z,102569.09
2023-01-25T13:21:46.202Z,102565.89
2023-01-25T13:24:21.638Z,102570.30
2023-01-25T13:26:55.425Z,102567.45
2023-01-25T13:29:39.747Z,102559.34
2023-01-25T13:32:14.191Z,102552.84
2023-01-25T13:34:45.464Z,102546.01
2023-01-25T13:37:30.188Z,102550.42
2023-01-25T13:40:09.214Z,102549.21
2023-01-25T13:42:39.899Z,102543.13
2023-01-25T13:45:20.138Z,102547.18
2023-01-25T13:48:06.156Z,102541.88
2023-01-25T13:50:41.118Z,102538.26
2023-01-25T13:53:17.522Z,102532.24
2023-01-25T13:55:48.823Z,102539.89
2023-01-25T13:58:27.338Z,102534.23
2023-01-25T14:01:07.635Z,102532.60
2023-01-25T14:03:36.881Z,102527.37
2023-01-25T14:06:05.474Z,102527.79
2023-01-25T14:08:33.535Z,102531.42
2023-01-25T14:11:01.459Z,102531.00
2023-01-25T14:13:29.124Z,102516.41
2023-01-25T14:16:00.477Z,102524.88
2023-01-25T14:18:35.346Z,102523.67
2023-01-25T14:21:21.038Z,102513.14
2023-01-25T14:23:49.907Z,102512.33
2023-01-25T14:26:26.886Z,102507.45
2023-01-25T14:29:01.752Z,102507.91
2023-01-25T14:31:36.954Z,102514.32
2023-01-25T14:34:07.201Z,102518.02
2023-01-25T14:36:35.916Z,102503.01
2023-01-25T14:39:14.719Z,102506.66
2023-01-25T14:41:51.651Z,102496.17
2023-01-25T14:44:27.331Z,102508.66
2023-01-25T14:47:30.044Z,102510.30
2023-01-25T14:50:33.434Z,102512.33
2023-01-25T14:53:09.945Z,102504.22
2023-01-25T14:55:38.557Z,102500.20
2023-01-25T14:58:08.528Z,102501.04
2023-01-25T15:00:37.259Z,102493.78
2023-01-25T15:03:15.419Z,102496.17
2023-01-25T15:05:47.601Z,102491.37
2023-01-25T15:08:28.021Z,102495.42
2023-01-25T15:11:20.061Z,102487.34
2023-01-25T15:13:47.935Z,102490.94
2023-01-25T15:16:17.568Z,102480.41
2023-01-25T15:18:52.359Z,102480.02
2023-01-25T15:21:41.397Z,102477.59
2023-01-25T15:24:13.388Z,102479.62
2023-01-25T15:26:41.264Z,102474.36
2023-01-25T15:29:22.130Z,102478.38
2023-01-25T15:31:51.830Z,102472.70
2023-01-25T15:34:27.313Z,102469.88
2023-01-25T15:36:55.062Z,102465.04
2023-01-25T15:39:22.841Z,102460.59
2023-01-25T15:41:50.714Z,102454.94
2023-01-25T15:44:21.152Z,102455.69
2023-01-25T15:46:52.683Z,102457.75
2023-01-25T15:49:28.944Z,102454.12
2023-01-25T15:51:57.571Z,102452.91
2023-01-25T15:54:25.568Z,102450.88
2023-01-25T15:56:57.237Z,102452.52
2023-01-25T15:59:25.344Z,102456.54
2023-01-25T16:01:53.331Z,102454.94
2023-01-25T16:04:21.027Z,102453.30
2023-01-25T16:06:51.950Z,102445.62
2023-01-25T16:09:21.354Z,102437.93
2023-01-25T16:11:54.073Z,102450.03
2023-01-25T16:14:24.626Z,102453.30
2023-01-25T16:16:54.056Z,102447.19
2023-01-25T16:19:24.382Z,102439.14
2023-01-25T16:21:52.984Z,102437.12
2023-01-25T16:24:20.757Z,102441.10
2023-01-25T16:26:56.785Z,102444.34
2023-01-25T16:29:25.143Z,102445.12
2023-01-25T16:31:53.763Z,102435.41
2023-01-25T16:34:22.298Z,102429.76
2023-01-25T16:36:54.278Z,102441.43
2023-01-25T16:39:24.592Z,102436.59
2023-01-25T16:41:52.647Z,102436.20
2023-01-25T16:44:20.998Z,102439.01
2023-01-25T16:46:52.314Z,102440.22
2023-01-25T16:49:28.342Z,102428.45
2023-01-25T16:51:56.499Z,102425.63
2023-01-25T16:54:24.907Z,102425.24
2023-01-25T16:56:54.385Z,102416.80
2023-01-25T16:59:23.447Z,102413.57
2023-01-25T17:01:51.332Z,102402.62
2023-01-25T17:04:19.918Z,102394.15
2023-01-25T17:06:50.651Z,102397.77
2023-01-25T17:09:25.453Z,102404.22
2023-01-25T17:11:54.628Z,102404.67
2023-01-25T17:14:23.189Z,102394.54
2023-01-25T17:16:53.318Z,102391.73
2023-01-25T17:19:21.616Z,102389.70
2023-01-25T17:21:49.446Z,102388.49
2023-01-25T17:24:19.374Z,102385.64
2023-01-25T17:26:47.480Z,102377.99
2023-01-25T17:29:15.297Z,102385.25
2023-01-25T17:31:43.312Z,102374.36
2023-01-25T17:34:17.111Z,102369.10
2023-01-25T17:36:45.711Z,102363.84
2023-01-25T17:39:16.461Z,102364.65
2023-01-25T17:41:45.248Z,102365.44
2023-01-25T17:44:13.989Z,102362.63
2023-01-25T17:46:41.814Z,102359.02
2023-01-25T17:49:14.065Z,102353.76
2023-01-25T17:51:41.819Z,102354.16
2023-01-25T17:54:09.890Z,102350.52
2023-01-25T17:56:39.526Z,102347.29
2023-01-25T17:59:10.071Z,102346.89
2023-01-25T18:01:37.843Z,102344.05
2023-01-25T18:04:09.758Z,102346.47
2023-01-25T18:06:37.783Z,102337.58
2023-01-25T18:09:07.751Z,102334.34
2023-01-25T18:11:37.868Z,102334.34
2023-01-25T18:14:09.394Z,102335.97
2023-01-25T18:16:39.880Z,102327.86
2023-01-25T18:19:08.969Z,102327.83
2023-01-25T18:21:37.667Z,102327.41
2023-01-25T18:24:35.763Z,102320.11
2023-01-25T18:27:18.508Z,102320.11
2023-01-25T18:29:59.309Z,102315.30
2023-01-25T18:32:28.077Z,102312.85
2023-01-25T18:34:55.787Z,102308.47
2023-01-25T18:37:26.535Z,102314.13
2023-01-25T18:39:55.808Z,102308.47
2023-01-25T18:42:25.738Z,102302.81
2023-01-25T18:44:53.730Z,102309.29
2023-01-25T18:47:23.441Z,102299.61
2023-01-25T18:49:53.115Z,102299.19
2023-01-25T18:52:23.128Z,102302.03
2023-01-25T18:54:50.930Z,102295.95
2023-01-25T18:57:19.186Z,102286.23
2023-01-25T18:59:47.101Z,102295.13
2023-01-25T19:02:16.388Z,102285.02
2023-01-25T19:04:44.130Z,102283.42
2023-01-25T19:07:12.026Z,102287.09
2023-01-25T19:09:39.998Z,102281.82
2023-01-25T19:12:08.010Z,102279.40
2023-01-25T19:14:35.772Z,102280.19
2023-01-25T19:17:03.598Z,102272.53
2023-01-25T19:19:33.291Z,102270.51
2023-01-25T19:22:01.899Z,102269.69
2023-01-25T19:24:29.727Z,102268.05
2023-01-25T19:26:57.763Z,102264.03
2023-01-25T19:29:25.604Z,102266.81
2023-01-25T19:31:53.284Z,102257.91
2023-01-25T19:34:21.186Z,102254.68
2023-01-25T19:36:51.204Z,102253.50
2023-01-25T19:39:19.166Z,102257.49
2023-01-25T19:41:47.340Z,102249.02
2023-01-25T19:44:15.898Z,102252.69
2023-01-25T19:46:44.268Z,102244.22
2023-01-25T19:49:14.343Z,102249.48
2023-01-25T19:51:46.649Z,102250.27
2023-01-25T19:54:17.799Z,102240.23
2023-01-25T19:56:48.269Z,102242.26
2023-01-25T19:59:19.518Z,102236.17
2023-01-25T20:01:47.897Z,102238.62
2023-01-25T20:04:18.611Z,102219.66
2023-01-25T20:06:46.649Z,102217.24
2023-01-25T20:09:15.959Z,102218.84
2023-01-25T20:11:44.174Z,102219.30
2023-01-25T20:14:14.472Z,102211.22
2023-01-25T20:16:42.218Z,102210.80
2023-01-25T20:19:12.972Z,102203.96
2023-01-25T20:21:41.149Z,102212.43
2023-01-25T20:24:11.197Z,102206.35
2023-01-25T20:26:41.160Z,102201.12
2023-01-25T20:29:09.536Z,102198.34
2023-01-25T20:31:46.046Z,102209.26
2023-01-25T20:34:16.855Z,102198.37
2023-01-25T20:36:45.436Z,102204.42
2023-01-25T20:39:15.909Z,102200.01
2023-01-25T20:41:43.983Z,102197.59
2023-01-25T20:44:14.437Z,102194.35
2023-01-25T20:46:43.623Z,102193.14
2023-01-25T20:49:16.586Z,102196.34
2023-01-25T20:51:45.078Z,102190.69
2023-01-25T20:54:14.503Z,102193.92
2023-01-25T20:56:42.556Z,102189.87
2023-01-25T20:59:10.334Z,102193.07
2023-01-25T21:01:38.189Z,102193.11
2023-01-25T21:04:08.763Z,102180.19
2023-01-25T21:06:37.054Z,102182.61
2023-01-25T21:09:05.882Z,102178.98
2023-01-25T21:11:33.904Z,102182.64
2023-01-25T21:14:01.976Z,102173.75
2023-01-25T21:16:30.165Z,102177.31
2023-01-25T21:19:00.278Z,102176.13
2023-01-25T21:21:32.917Z,102181.79
2023-01-25T21:24:04.056Z,102168.84
2023-01-25T21:26:34.014Z,102168.41
2023-01-25T21:29:03.280Z,102169.59
2023-01-25T21:31:39.391Z,102159.09
2023-01-25T21:34:07.672Z,102166.75
2023-01-25T21:36:35.412Z,102162.70
2023-01-25T21:39:03.139Z,102158.25
2023-01-25T21:41:34.407Z,102153.80
2023-01-25T21:44:21.955Z,102150.59
2023-01-25T21:47:16.327Z,102152.23
2023-01-25T21:50:06.573Z,102146.97
2023-01-25T21:52:36.465Z,102144.58
2023-01-25T21:55:05.806Z,102148.24
2023-01-25T21:57:33.520Z,102145.00
2023-01-25T22:00:01.737Z,102143.40
2023-01-25T22:02:29.583Z,102147.85
2023-01-25T22:04:57.280Z,102140.59
2023-01-25T22:07:25.581Z,102134.93
2023-01-25T22:09:53.295Z,102138.56
2023-01-25T22:12:20.993Z,102137.74
2023-01-25T22:14:48.713Z,102139.77
2023-01-25T22:17:16.432Z,102129.27
2023-01-25T22:19:44.209Z,102126.46
2023-01-25T22:22:11.948Z,102130.09
2023-01-25T22:24:39.704Z,102134.93
2023-01-25T22:27:19.401Z,102135.75
2023-01-25T22:29:47.048Z,102117.60
2023-01-25T22:32:14.786Z,102120.80
2023-01-25T22:34:42.565Z,102123.26
2023-01-25T22:37:12.798Z,102122.84
2023-01-25T22:39:40.481Z,102125.29
2023-01-25T22:42:08.196Z,102121.23
2023-01-25T22:44:36.825Z,102120.41
2023-01-25T22:47:04.580Z,102120.02
2023-01-25T22:49:32.223Z,102120.02
2023-01-25T22:51:59.965Z,102115.57
2023-01-25T22:54:27.667Z,102111.52
2023-01-25T22:56:55.304Z,102109.13
2023-01-25T22:59:22.941Z,102092.98
2023-01-25T23:01:50.693Z,102095.43
2023-01-25T23:04:18.433Z,102093.37
2023-01-25T23:06:46.200Z,102088.53
2023-01-25T23:09:13.952Z,102073.62
2023-01-25T23:11:41.786Z,102077.64
2023-01-25T23:14:31.701Z,102076.43
2023-01-25T23:17:19.434Z,102071.20
2023-01-25T23:19:47.157Z,102076.82
2023-01-25T23:22:14.903Z,102063.09
2023-01-25T23:24:42.623Z,102061.09
2023-01-25T23:27:10.304Z,102069.56
2023-01-25T23:29:38.400Z,102062.30
2023-01-25T23:32:06.342Z,102056.65
2023-01-25T23:34:36.684Z,102059.07
2023-01-25T23:37:04.977Z,102049.39
2023-01-25T23:39:32.677Z,102048.60
2023-01-25T23:42:00.317Z,102048.18
2023-01-25T23:44:27.996Z,102044.55
2023-01-25T23:46:56.022Z,102046.97
2023-01-25T23:49:23.728Z,102047.79
2023-01-25T23:51:51.467Z,102042.16
2023-01-25T23:54:19.145Z,102035.69
2023-01-25T23:56:46.872Z,102033.27
2023-01-25T23:59:14.594Z,102033.23
